createdAt,value
2022-12-27T00:00:56.569Z,7.25
2022-12-27T00:02:02.962Z,6.45
2022-12-27T00:03:05.763Z,6.82
2022-12-27T00:04:08.730Z,7.05
2022-12-27T00:05:11.905Z,7.75
2022-12-27T00:06:18.043Z,7.53
2022-12-27T00:07:20.824Z,6.75
2022-12-27T00:08:23.522Z,7.07
2022-12-27T00:09:29.046Z,6.57
2022-12-27T00:10:31.756Z,6.43
2022-12-27T00:11:34.748Z,7.45
2022-12-27T00:12:37.505Z,6.22
2022-12-27T00:13:40.435Z,6.20
2022-12-27T00:14:43.158Z,6.25
2022-12-27T00:15:45.887Z,7.07
2022-12-27T00:16:48.667Z,6.43
2022-12-27T00:17:52.149Z,7.20
2022-12-27T00:18:55.162Z,6.95
2022-12-27T00:19:57.885Z,6.13
2022-12-27T00:21:02.196Z,7.30
2022-12-27T00:22:05.404Z,7.70
2022-12-27T00:23:08.264Z,7.05
2022-12-27T00:24:11.334Z,7.15
2022-12-27T00:25:14.264Z,6.70
2022-12-27T00:26:29.732Z,6.50
2022-12-27T00:27:32.512Z,6.57
2022-12-27T00:28:35.807Z,6.32
2022-12-27T00:29:39.212Z,6.32
2022-12-27T00:30:41.971Z,7.22
2022-12-27T00:31:45.014Z,7.45
2022-12-27T00:32:47.927Z,7.57
2022-12-27T00:33:52.214Z,7.43
2022-12-27T00:34:54.976Z,7.65
2022-12-27T00:36:02.992Z,6.82
2022-12-27T00:37:05.847Z,7.03
2022-12-27T00:38:08.687Z,7.40
2022-12-27T00:39:11.760Z,7.68
2022-12-27T00:40:15.229Z,6.72
2022-12-27T00:41:18.281Z,6.30
2022-12-27T00:42:21.129Z,6.22
2022-12-27T00:43:23.867Z,6.00
2022-12-27T00:44:26.627Z,6.47
2022-12-27T00:45:29.403Z,6.28
2022-12-27T00:46:32.286Z,7.07
2022-12-27T00:47:37.285Z,6.50
2022-12-27T00:48:40.439Z,7.30
2022-12-27T00:49:43.215Z,7.15
2022-12-27T00:50:46.536Z,7.07
2022-12-27T00:51:49.380Z,6.90
2022-12-27T00:52:52.261Z,7.45
2022-12-27T00:53:55.904Z,6.28
2022-12-27T00:54:58.678Z,7.15
2022-12-27T00:56:01.935Z,7.00
2022-12-27T00:57:04.795Z,5.90
2022-12-27T00:58:07.482Z,6.63
2022-12-27T00:59:11.679Z,6.75
2022-12-27T01:00:15.096Z,6.50
2022-12-27T01:01:20.295Z,6.80
2022-12-27T01:02:23.771Z,6.50
2022-12-27T01:03:26.591Z,6.05
2022-12-27T01:04:29.560Z,6.95
2022-12-27T01:05:32.355Z,7.18
2022-12-27T01:06:35.463Z,6.13
2022-12-27T01:07:38.415Z,6.05
2022-12-27T01:08:41.526Z,6.55
2022-12-27T01:09:44.293Z,5.85
2022-12-27T01:10:47.151Z,7.00
2022-12-27T01:11:50.118Z,7.70
2022-12-27T01:12:53.005Z,7.15
2022-12-27T01:13:57.712Z,7.97
2022-12-27T01:15:00.486Z,7.50
2022-12-27T01:16:12.478Z,7.65
2022-12-27T01:17:15.442Z,6.50
2022-12-27T01:18:18.175Z,6.90
2022-12-27T01:19:20.862Z,6.20
2022-12-27T01:20:24.257Z,6.22
2022-12-27T01:21:30.992Z,6.88
2022-12-27T01:22:33.872Z,6.38
2022-12-27T01:23:37.605Z,5.30
2022-12-27T01:24:40.285Z,5.90
2022-12-27T01:25:43.067Z,6.03
2022-12-27T01:26:45.823Z,5.47
2022-12-27T01:27:48.538Z,5.70
2022-12-27T01:28:52.174Z,5.60
2022-12-27T01:29:54.882Z,5.57
2022-12-27T01:30:58.006Z,6.00
2022-12-27T01:32:00.871Z,5.97
2022-12-27T01:33:03.867Z,6.00
2022-12-27T01:34:06.869Z,6.00
2022-12-27T01:35:09.980Z,6.60
2022-12-27T01:36:19.456Z,5.80
2022-12-27T01:37:22.240Z,6.30
2022-12-27T01:38:25.147Z,5.80
2022-12-27T01:39:27.932Z,6.72
2022-12-27T01:40:30.784Z,6.53
2022-12-27T01:41:55.122Z,5.82
2022-12-27T01:42:57.845Z,6.80
2022-12-27T01:44:00.824Z,5.28
2022-12-27T01:45:20.373Z,5.43
2022-12-27T01:46:23.493Z,5.90
2022-12-27T01:47:36.754Z,5.18
2022-12-27T01:48:39.894Z,5.63
2022-12-27T01:49:46.815Z,5.60
2022-12-27T01:50:59.416Z,5.65
2022-12-27T01:52:02.348Z,6.22
2022-12-27T01:53:22.746Z,6.07
2022-12-27T01:54:25.646Z,5.05
2022-12-27T01:55:57.414Z,6.45
2022-12-27T01:57:00.258Z,5.75
2022-12-27T01:58:09.880Z,4.70
2022-12-27T01:59:13.212Z,4.72
2022-12-27T02:00:16.487Z,5.13
2022-12-27T02:01:21.623Z,5.15
2022-12-27T02:02:24.836Z,5.00
2022-12-27T02:03:33.466Z,5.63
2022-12-27T02:04:36.395Z,5.20
2022-12-27T02:05:41.925Z,6.47
2022-12-27T02:06:45.387Z,5.45
2022-12-27T02:07:58.267Z,5.50
2022-12-27T02:09:22.508Z,5.03
2022-12-27T02:10:26.272Z,5.22
2022-12-27T02:11:51.897Z,4.95
2022-12-27T02:12:54.863Z,6.25
2022-12-27T02:13:57.635Z,4.93
2022-12-27T02:15:03.061Z,6.30
2022-12-27T02:16:17.755Z,5.15
2022-12-27T02:17:24.447Z,5.68
2022-12-27T02:18:27.271Z,4.65
2022-12-27T02:19:42.580Z,5.80
2022-12-27T02:21:18.736Z,5.25
2022-12-27T02:23:02.125Z,5.00
2022-12-27T02:24:17.134Z,4.50
2022-12-27T02:25:50.162Z,4.95
2022-12-27T02:27:04.910Z,5.85
2022-12-27T02:28:39.642Z,5.38
2022-12-27T02:30:02.126Z,4.63
2022-12-27T02:31:22.999Z,5.18
2022-12-27T02:32:38.989Z,5.88
2022-12-27T02:33:47.017Z,5.03
2022-12-27T02:35:00.557Z,5.70
2022-12-27T02:36:10.236Z,5.85
2022-12-27T02:37:13.823Z,5.50
2022-12-27T02:38:23.911Z,5.07
2022-12-27T02:39:27.219Z,5.15
2022-12-27T02:40:50.438Z,5.38
2022-12-27T02:42:12.850Z,4.70
2022-12-27T02:43:34.080Z,4.63
2022-12-27T02:44:55.739Z,5.10
2022-12-27T02:46:40.479Z,3.30
2022-12-27T02:48:02.355Z,3.25
2022-12-27T02:49:45.798Z,3.35
2022-12-27T02:51:26.606Z,3.10
2022-12-27T02:52:53.021Z,3.25
2022-12-27T02:54:46.846Z,2.10
2022-12-27T02:56:24.411Z,2.00
2022-12-27T02:58:05.280Z,1.33
2022-12-27T02:59:28.361Z,1.40
2022-12-27T03:01:05.471Z,1.30
2022-12-27T03:02:38.597Z,1.20
2022-12-27T03:03:44.961Z,1.02
2022-12-27T03:05:14.211Z,0.77
2022-12-27T03:06:42.869Z,0.85
2022-12-27T03:07:51.976Z,0.52
2022-12-27T03:09:35.439Z,0.70
2022-12-27T03:11:02.505Z,1.27
2022-12-27T03:12:54.803Z,0.90
2022-12-27T03:14:48.303Z,1.05
2022-12-27T03:16:01.474Z,0.70
2022-12-27T03:17:15.047Z,1.13
2022-12-27T03:18:41.813Z,1.17
2022-12-27T03:20:09.557Z,0.80
2022-12-27T03:21:36.758Z,1.17
2022-12-27T03:22:58.303Z,1.17
2022-12-27T03:24:20.544Z,1.10
2022-12-27T03:25:29.460Z,0.93
2022-12-27T03:26:35.013Z,1.20
2022-12-27T03:27:39.013Z,1.15
2022-12-27T03:29:01.103Z,1.08
2022-12-27T03:30:26.942Z,1.33
2022-12-27T03:31:52.001Z,1.30
2022-12-27T03:33:14.867Z,1.20
2022-12-27T03:34:36.052Z,1.20
2022-12-27T03:36:23.885Z,1.15
2022-12-27T03:37:51.383Z,1.02
2022-12-27T03:39:02.016Z,1.30
2022-12-27T03:42:03.868Z,1.48
2022-12-27T03:43:14.040Z,1.20
2022-12-27T03:44:25.981Z,0.90
2022-12-27T03:45:58.382Z,1.20
2022-12-27T03:47:06.221Z,1.08
2022-12-27T03:48:14.376Z,1.35
2022-12-27T03:49:48.646Z,1.25
2022-12-27T03:50:57.636Z,1.20
2022-12-27T03:52:11.577Z,1.58
2022-12-27T03:53:30.071Z,1.25
2022-12-27T03:54:38.709Z,1.20
2022-12-27T03:55:42.448Z,1.00
2022-12-27T03:56:45.387Z,1.25
2022-12-27T03:57:48.314Z,1.25
2022-12-27T03:58:51.676Z,1.13
2022-12-27T03:59:54.786Z,1.20
2022-12-27T04:00:57.544Z,1.20
2022-12-27T04:02:01.632Z,1.20
2022-12-27T04:03:04.839Z,1.40
2022-12-27T04:04:07.545Z,1.00
2022-12-27T04:05:12.628Z,1.77
2022-12-27T04:06:15.869Z,1.13
2022-12-27T04:07:18.620Z,1.67
2022-12-27T04:08:40.267Z,1.67
2022-12-27T04:10:01.693Z,1.60
2022-12-27T04:11:22.846Z,2.22
2022-12-27T04:12:44.216Z,1.65
2022-12-27T04:14:05.766Z,1.80
2022-12-27T04:15:27.760Z,1.70
2022-12-27T04:16:49.370Z,1.40
2022-12-27T04:18:10.983Z,1.50
2022-12-27T04:19:32.355Z,1.40
2022-12-27T04:20:53.463Z,1.40
2022-12-27T04:22:15.821Z,1.60
2022-12-27T04:23:37.261Z,1.38
2022-12-27T04:24:58.771Z,1.13
2022-12-27T04:26:19.991Z,1.33
2022-12-27T04:27:41.459Z,1.60
2022-12-27T04:29:02.974Z,2.03
2022-12-27T04:30:24.931Z,1.80
2022-12-27T04:31:46.696Z,1.35
2022-12-27T04:33:07.846Z,1.60
2022-12-27T04:34:29.081Z,1.35
2022-12-27T04:35:32.543Z,1.75
2022-12-27T04:36:35.305Z,2.20
2022-12-27T04:37:38.059Z,1.63
2022-12-27T04:38:40.835Z,1.50
2022-12-27T04:40:03.342Z,1.58
2022-12-27T04:41:24.802Z,1.75
2022-12-27T04:42:46.191Z,1.70
2022-12-27T04:44:07.985Z,1.50
2022-12-27T04:45:29.967Z,1.55
2022-12-27T04:46:51.275Z,1.73
2022-12-27T04:48:12.786Z,2.00
2022-12-27T04:49:42.369Z,1.85
2022-12-27T04:51:06.046Z,1.40
2022-12-27T04:52:36.317Z,1.50
2022-12-27T04:53:57.645Z,1.63
2022-12-27T04:55:08.255Z,1.30
2022-12-27T04:56:11.101Z,1.33
2022-12-27T04:57:14.009Z,1.38
2022-12-27T04:58:16.803Z,2.08
2022-12-27T04:59:38.052Z,1.60
2022-12-27T05:00:59.329Z,1.85
2022-12-27T05:02:05.873Z,2.30
2022-12-27T05:03:19.258Z,2.17
2022-12-27T05:04:23.131Z,2.13
2022-12-27T05:05:26.188Z,2.88
2022-12-27T05:06:29.467Z,2.63
2022-12-27T05:07:51.189Z,2.65
2022-12-27T05:09:13.692Z,2.25
2022-12-27T05:10:37.434Z,2.42
2022-12-27T05:11:59.151Z,2.22
2022-12-27T05:13:20.635Z,2.25
2022-12-27T05:14:23.571Z,2.47
2022-12-27T05:15:26.385Z,2.78
2022-12-27T05:16:36.095Z,2.90
2022-12-27T05:17:38.977Z,2.70
2022-12-27T05:18:41.757Z,3.78
2022-12-27T05:19:44.771Z,3.00
2022-12-27T05:20:47.506Z,2.47
2022-12-27T05:22:09.101Z,2.75
2022-12-27T05:23:30.435Z,2.70
2022-12-27T05:24:51.560Z,2.92
2022-12-27T05:25:54.351Z,2.55
2022-12-27T05:26:57.265Z,2.55
2022-12-27T05:28:00.241Z,2.38
2022-12-27T05:29:03.102Z,2.63
2022-12-27T05:30:06.571Z,2.65
2022-12-27T05:31:10.022Z,2.85
2022-12-27T05:32:13.795Z,3.22
2022-12-27T05:33:16.918Z,3.55
2022-12-27T05:34:19.741Z,2.72
2022-12-27T05:35:23.088Z,2.78
2022-12-27T05:36:26.899Z,3.10
2022-12-27T05:37:29.665Z,3.83
2022-12-27T05:38:32.673Z,3.03
2022-12-27T05:39:35.632Z,3.67
2022-12-27T05:40:38.441Z,4.72
2022-12-27T05:41:41.371Z,4.15
2022-12-27T05:42:44.250Z,3.20
2022-12-27T05:43:47.087Z,3.10
2022-12-27T05:44:49.864Z,2.75
2022-12-27T05:45:52.791Z,2.45
2022-12-27T05:46:56.125Z,2.58
2022-12-27T05:47:59.838Z,1.70
2022-12-27T05:49:02.760Z,1.98
2022-12-27T05:50:06.129Z,2.95
2022-12-27T05:51:11.290Z,2.50
2022-12-27T05:52:14.142Z,1.90
2022-12-27T05:53:17.015Z,1.92
2022-12-27T05:54:19.731Z,2.35
2022-12-27T05:55:22.603Z,2.58
2022-12-27T05:56:25.520Z,1.90
2022-12-27T05:57:28.325Z,1.60
2022-12-27T05:58:31.095Z,2.00
2022-12-27T05:59:33.937Z,1.75
2022-12-27T06:00:36.722Z,2.17
2022-12-27T06:01:39.527Z,1.85
2022-12-27T06:02:42.794Z,2.15
2022-12-27T06:03:46.018Z,2.10
2022-12-27T06:04:48.904Z,2.28
2022-12-27T06:05:51.751Z,2.20
2022-12-27T06:06:54.469Z,2.15
2022-12-27T06:07:57.812Z,2.22
2022-12-27T06:09:02.997Z,1.65
2022-12-27T06:10:07.331Z,2.20
2022-12-27T06:11:18.335Z,1.73
2022-12-27T06:12:21.040Z,1.58
2022-12-27T06:13:24.150Z,2.20
2022-12-27T06:14:26.852Z,2.15
2022-12-27T06:15:30.532Z,1.85
2022-12-27T06:16:33.380Z,2.58
2022-12-27T06:17:36.223Z,2.13
2022-12-27T06:18:40.616Z,1.75
2022-12-27T06:19:43.601Z,1.92
2022-12-27T06:20:46.747Z,1.70
2022-12-27T06:21:49.624Z,2.33
2022-12-27T06:22:52.733Z,2.30
2022-12-27T06:23:55.625Z,2.13
2022-12-27T06:24:58.503Z,2.72
2022-12-27T06:26:05.612Z,2.05
2022-12-27T06:27:08.421Z,2.00
2022-12-27T06:28:11.149Z,2.13
2022-12-27T06:29:13.903Z,1.65
2022-12-27T06:30:16.752Z,1.60
2022-12-27T06:31:20.260Z,1.63
2022-12-27T06:32:23.157Z,2.13
2022-12-27T06:33:26.033Z,2.70
2022-12-27T06:34:29.064Z,2.40
2022-12-27T06:35:31.851Z,1.83
2022-12-27T06:36:34.782Z,2.20
2022-12-27T06:37:37.718Z,2.00
2022-12-27T06:38:41.149Z,2.65
2022-12-27T06:39:44.555Z,2.08
2022-12-27T06:40:47.440Z,3.83
2022-12-27T06:41:51.011Z,4.15
2022-12-27T06:42:53.759Z,4.15
2022-12-27T06:43:58.264Z,3.17
2022-12-27T06:45:01.017Z,3.47
2022-12-27T06:46:06.124Z,3.50
2022-12-27T06:47:08.924Z,2.58
2022-12-27T06:48:11.639Z,2.90
2022-12-27T06:49:14.761Z,2.83
2022-12-27T06:50:17.463Z,2.85
2022-12-27T06:51:21.281Z,3.38
2022-12-27T06:52:24.306Z,2.85
2022-12-27T06:53:27.111Z,2.22
2022-12-27T06:54:29.871Z,1.83
2022-12-27T06:55:32.656Z,1.92
2022-12-27T06:56:35.597Z,1.65
2022-12-27T06:57:38.316Z,2.45
2022-12-27T06:58:41.702Z,1.95
2022-12-27T06:59:47.009Z,2.53
2022-12-27T07:00:53.883Z,2.05
2022-12-27T07:01:57.245Z,2.08
2022-12-27T07:03:00.195Z,2.22
2022-12-27T07:04:03.153Z,2.15
2022-12-27T07:05:06.347Z,2.50
2022-12-27T07:06:13.809Z,2.10
2022-12-27T07:07:16.562Z,2.15
2022-12-27T07:08:19.351Z,2.05
2022-12-27T07:09:22.123Z,2.20
2022-12-27T07:10:24.867Z,2.03
2022-12-27T07:11:27.839Z,2.45
2022-12-27T07:12:34.794Z,3.28
2022-12-27T07:13:41.802Z,2.67
2022-12-27T07:14:44.570Z,2.90
2022-12-27T07:15:47.229Z,3.40
2022-12-27T07:16:50.942Z,4.07
2022-12-27T07:17:53.686Z,3.30
2022-12-27T07:18:58.241Z,2.78
2022-12-27T07:20:00.985Z,2.72
2022-12-27T07:21:23.984Z,2.45
2022-12-27T07:22:27.406Z,2.80
2022-12-27T07:23:30.399Z,2.30
2022-12-27T07:24:33.467Z,2.67
2022-12-27T07:25:36.376Z,2.97
2022-12-27T07:26:39.557Z,2.55
2022-12-27T07:27:42.238Z,2.95
2022-12-27T07:28:45.256Z,2.47
2022-12-27T07:29:48.056Z,2.83
2022-12-27T07:30:50.819Z,2.60
2022-12-27T07:31:53.690Z,2.50
2022-12-27T07:32:56.478Z,3.28
2022-12-27T07:34:01.318Z,2.78
2022-12-27T07:35:04.539Z,3.08
2022-12-27T07:36:12.894Z,3.30
2022-12-27T07:37:17.811Z,3.30
2022-12-27T07:38:20.678Z,3.45
2022-12-27T07:39:23.376Z,3.30
2022-12-27T07:40:26.588Z,3.70
2022-12-27T07:41:29.799Z,2.20
2022-12-27T07:42:35.607Z,2.95
2022-12-27T07:43:39.006Z,3.33
2022-12-27T07:44:41.802Z,2.85
2022-12-27T07:45:44.495Z,3.33
2022-12-27T07:46:47.249Z,2.83
2022-12-27T07:47:50.026Z,2.58
2022-12-27T07:48:57.597Z,2.67
2022-12-27T07:50:00.601Z,2.60
2022-12-27T07:51:04.315Z,2.15
2022-12-27T07:52:07.163Z,2.53
2022-12-27T07:53:09.930Z,3.13
2022-12-27T07:54:12.722Z,2.13
2022-12-27T07:55:15.594Z,2.03
2022-12-27T07:56:26.511Z,2.58
2022-12-27T07:57:30.059Z,2.33
2022-12-27T07:58:37.043Z,1.75
2022-12-27T07:59:39.970Z,2.83
2022-12-27T08:00:42.680Z,2.75
2022-12-27T08:02:03.967Z,2.67
2022-12-27T08:03:06.923Z,2.05
2022-12-27T08:04:09.728Z,2.17
2022-12-27T08:05:12.471Z,2.28
2022-12-27T08:06:33.080Z,2.67
2022-12-27T08:07:36.052Z,2.30
2022-12-27T08:08:41.191Z,2.33
2022-12-27T08:09:46.112Z,2.80
2022-12-27T08:10:49.005Z,3.03
2022-12-27T08:11:52.027Z,2.42
2022-12-27T08:12:54.765Z,3.03
2022-12-27T08:13:57.526Z,2.45
2022-12-27T08:15:00.254Z,1.63
2022-12-27T08:16:03.791Z,2.30
2022-12-27T08:17:12.288Z,3.65
2022-12-27T08:18:15.054Z,2.95
2022-12-27T08:19:17.865Z,2.35
2022-12-27T08:20:20.752Z,2.20
2022-12-27T08:21:23.861Z,2.90
2022-12-27T08:22:26.919Z,2.97
2022-12-27T08:23:29.728Z,2.50
2022-12-27T08:24:32.565Z,2.55
2022-12-27T08:25:36.056Z,2.45
2022-12-27T08:26:38.753Z,2.80
2022-12-27T08:27:41.547Z,1.55
2022-12-27T08:28:44.386Z,2.67
2022-12-27T08:29:48.269Z,2.42
2022-12-27T08:30:51.141Z,2.05
2022-12-27T08:31:53.884Z,2.65
2022-12-27T08:32:56.820Z,2.88
2022-12-27T08:34:03.271Z,2.60
2022-12-27T08:35:41.788Z,2.95
2022-12-27T08:36:54.094Z,2.30
2022-12-27T08:37:52.089Z,2.00
2022-12-27T08:38:55.771Z,2.42
2022-12-27T08:40:02.660Z,2.45
2022-12-27T08:41:06.051Z,2.83
2022-12-27T08:42:13.506Z,2.63
2022-12-27T08:43:16.395Z,2.97
2022-12-27T08:44:19.269Z,3.33
2022-12-27T08:45:22.168Z,3.35
2022-12-27T08:46:24.947Z,3.47
2022-12-27T08:47:28.009Z,3.70
2022-12-27T08:48:33.496Z,5.25
2022-12-27T08:49:36.345Z,3.35
2022-12-27T08:50:39.281Z,3.28
2022-12-27T08:51:42.066Z,2.90
2022-12-27T08:52:45.094Z,2.58
2022-12-27T08:53:49.679Z,2.33
2022-12-27T08:54:52.604Z,2.45
2022-12-27T08:55:56.899Z,2.33
2022-12-27T08:57:00.143Z,2.00
2022-12-27T08:58:10.527Z,2.55
2022-12-27T08:59:18.400Z,2.25
2022-12-27T09:00:21.413Z,2.22
2022-12-27T09:01:25.749Z,2.30
2022-12-27T09:02:28.752Z,2.38
2022-12-27T09:03:31.698Z,2.42
2022-12-27T09:04:34.542Z,2.83
2022-12-27T09:05:41.695Z,2.58
2022-12-27T09:06:44.828Z,2.67
2022-12-27T09:07:48.169Z,2.30
2022-12-27T09:08:52.024Z,3.72
2022-12-27T09:09:54.979Z,2.58
2022-12-27T09:10:57.708Z,2.20
2022-12-27T09:12:03.140Z,2.70
2022-12-27T09:13:11.145Z,2.70
2022-12-27T09:14:13.898Z,2.80
2022-12-27T09:15:16.782Z,2.53
2022-12-27T09:16:24.600Z,2.75
2022-12-27T09:17:27.961Z,2.53
2022-12-27T09:18:30.803Z,2.65
2022-12-27T09:19:33.586Z,2.17
2022-12-27T09:20:37.776Z,2.38
2022-12-27T09:21:41.688Z,2.80
2022-12-27T09:22:45.433Z,2.90
2022-12-27T09:23:49.108Z,2.33
2022-12-27T09:24:51.952Z,2.72
2022-12-27T09:25:54.721Z,2.58
2022-12-27T09:26:57.593Z,1.77
2022-12-27T09:28:00.414Z,2.15
2022-12-27T09:29:03.109Z,1.85
2022-12-27T09:30:07.541Z,2.58
2022-12-27T09:31:12.298Z,2.05
2022-12-27T09:32:15.316Z,2.22
2022-12-27T09:33:18.226Z,2.30
2022-12-27T09:34:21.112Z,2.33
2022-12-27T09:35:23.901Z,1.92
2022-12-27T09:36:29.198Z,2.00
2022-12-27T09:37:32.558Z,3.10
2022-12-27T09:38:35.971Z,2.75
2022-12-27T09:39:38.787Z,2.20
2022-12-27T09:40:59.609Z,1.65
2022-12-27T09:43:54.633Z,1.77
2022-12-27T09:45:08.952Z,2.45
2022-12-27T09:46:16.152Z,2.10
2022-12-27T09:47:57.299Z,2.20
2022-12-27T09:49:00.292Z,2.42
2022-12-27T09:50:17.720Z,2.22
2022-12-27T09:51:29.440Z,1.85
2022-12-27T09:52:35.149Z,2.65
2022-12-27T09:53:37.942Z,2.00
2022-12-27T09:54:44.310Z,2.67
2022-12-27T09:55:50.129Z,2.40
2022-12-27T09:57:18.980Z,2.15
2022-12-27T09:58:34.012Z,2.50
2022-12-27T10:00:46.057Z,2.08
2022-12-27T10:01:49.815Z,2.00
2022-12-27T10:02:53.176Z,2.10
2022-12-27T10:03:56.095Z,1.73
2022-12-27T10:06:33.617Z,1.80
2022-12-27T10:08:06.494Z,2.88
2022-12-27T10:09:11.930Z,2.17
2022-12-27T10:10:22.487Z,1.90
2022-12-27T10:11:37.793Z,1.90
2022-12-27T10:13:13.914Z,2.30
2022-12-27T10:14:40.541Z,1.95
2022-12-27T10:16:10.746Z,1.45
2022-12-27T10:17:25.984Z,1.83
2022-12-27T10:18:55.028Z,1.98
2022-12-27T10:20:36.812Z,1.92
2022-12-27T10:22:06.377Z,1.90
2022-12-27T10:23:19.449Z,2.22
2022-12-27T10:24:36.013Z,2.13
2022-12-27T10:25:40.006Z,2.80
2022-12-27T10:26:43.104Z,3.05
2022-12-27T10:27:45.947Z,2.90
2022-12-27T10:29:22.193Z,2.17
2022-12-27T10:30:25.170Z,2.58
2022-12-27T10:31:28.986Z,2.35
2022-12-27T10:32:31.776Z,2.55
2022-12-27T10:33:35.536Z,1.98
2022-12-27T10:34:38.396Z,1.80
2022-12-27T10:35:41.097Z,1.63
2022-12-27T10:36:45.271Z,2.03
2022-12-27T10:37:48.973Z,2.03
2022-12-27T10:38:52.145Z,1.60
2022-12-27T10:39:57.507Z,3.03
2022-12-27T10:41:08.581Z,2.13
2022-12-27T10:42:17.356Z,2.67
2022-12-27T10:43:25.289Z,2.20
2022-12-27T10:44:29.482Z,2.10
2022-12-27T10:45:39.325Z,2.35
2022-12-27T10:46:44.703Z,2.83
2022-12-27T10:47:47.521Z,2.15
2022-12-27T10:49:21.983Z,2.30
2022-12-27T10:50:26.752Z,2.40
2022-12-27T10:51:43.367Z,2.00
2022-12-27T10:52:46.302Z,2.15
2022-12-27T10:53:48.954Z,2.00
2022-12-27T10:54:52.670Z,1.73
2022-12-27T10:56:11.061Z,2.10
2022-12-27T10:57:33.703Z,1.50
2022-12-27T10:58:40.787Z,2.13
2022-12-27T10:59:43.528Z,1.65
2022-12-27T11:00:56.662Z,1.90
2022-12-27T11:02:02.905Z,2.33
2022-12-27T11:03:08.542Z,2.80
2022-12-27T11:04:20.216Z,3.08
2022-12-27T11:05:27.860Z,2.00
2022-12-27T11:06:30.552Z,2.75
2022-12-27T11:07:34.617Z,3.05
2022-12-27T11:08:38.120Z,2.30
2022-12-27T11:09:50.220Z,3.63
2022-12-27T11:11:22.806Z,2.45
2022-12-27T11:12:32.335Z,3.05
2022-12-27T11:13:35.148Z,2.72
2022-12-27T11:14:37.892Z,3.38
2022-12-27T11:15:42.567Z,3.00
2022-12-27T11:16:45.733Z,2.75
2022-12-27T11:17:51.282Z,2.63
2022-12-27T11:18:57.107Z,3.13
2022-12-27T11:20:06.608Z,2.45
2022-12-27T11:21:21.226Z,2.80
2022-12-27T11:22:28.532Z,3.28
2022-12-27T11:23:36.560Z,2.90
2022-12-27T11:24:45.523Z,2.40
2022-12-27T11:25:54.595Z,2.45
2022-12-27T11:26:59.294Z,2.28
2022-12-27T11:28:22.242Z,2.13
2022-12-27T11:29:31.198Z,2.50
2022-12-27T11:30:39.983Z,3.00
2022-12-27T11:31:48.150Z,2.30
2022-12-27T11:32:51.284Z,2.72
2022-12-27T11:33:55.123Z,2.15
2022-12-27T11:34:58.125Z,2.38
2022-12-27T11:36:01.134Z,2.10
2022-12-27T11:37:11.097Z,3.38
2022-12-27T11:38:28.707Z,2.17
2022-12-27T11:39:46.034Z,2.80
2022-12-27T11:41:08.338Z,2.58
2022-12-27T11:42:38.505Z,2.42
2022-12-27T11:43:57.591Z,2.00
2022-12-27T11:45:23.789Z,1.85
2022-12-27T11:46:42.882Z,2.35
2022-12-27T11:48:05.457Z,1.58
2022-12-27T11:49:21.106Z,1.92
2022-12-27T11:50:26.572Z,1.50
2022-12-27T11:51:47.066Z,1.60
2022-12-27T11:53:10.684Z,2.10
2022-12-27T11:54:20.074Z,1.77
2022-12-27T11:55:34.567Z,1.95
2022-12-27T11:56:52.882Z,2.40
2022-12-27T11:58:17.145Z,1.80
2022-12-27T11:59:33.929Z,1.92
2022-12-27T12:01:05.612Z,2.05
2022-12-27T12:02:46.803Z,1.67
2022-12-27T12:04:01.117Z,1.90
2022-12-27T12:05:22.363Z,2.33
2022-12-27T12:06:37.079Z,1.95
2022-12-27T12:07:50.035Z,2.05
2022-12-27T12:09:14.400Z,2.15
2022-12-27T12:10:31.967Z,2.92
2022-12-27T12:11:54.616Z,2.13
2022-12-27T12:13:15.664Z,2.92
2022-12-27T12:14:29.880Z,3.00
2022-12-27T12:15:41.406Z,2.22
2022-12-27T12:16:50.392Z,2.30
2022-12-27T12:18:16.494Z,1.90
2022-12-27T12:19:43.419Z,2.20
2022-12-27T12:21:23.676Z,2.83
2022-12-27T12:23:01.929Z,2.27
2022-12-27T12:24:10.888Z,2.60
2022-12-27T12:25:43.197Z,2.58
2022-12-27T12:27:03.998Z,3.00
2022-12-27T12:28:57.131Z,3.13
2022-12-27T12:30:13.132Z,3.17
2022-12-27T12:31:53.243Z,2.38
2022-12-27T12:33:08.767Z,2.30
2022-12-27T12:34:51.877Z,2.92
2022-12-27T12:36:10.157Z,1.90
2022-12-27T12:37:32.614Z,1.73
2022-12-27T12:38:40.762Z,2.55
2022-12-27T12:40:25.607Z,2.70
2022-12-27T12:41:49.452Z,2.40
2022-12-27T12:43:05.230Z,2.80
2022-12-27T12:44:41.749Z,2.20
2022-12-27T12:46:03.126Z,2.78
2022-12-27T12:47:24.139Z,2.72
2022-12-27T12:49:32.994Z,2.33
2022-12-27T12:51:13.405Z,2.60
2022-12-27T12:52:21.872Z,2.58
2022-12-27T12:53:58.093Z,2.78
2022-12-27T12:55:24.937Z,2.38
2022-12-27T12:57:05.492Z,3.17
2022-12-27T12:58:14.208Z,2.50
2022-12-27T12:59:34.679Z,2.83
2022-12-27T13:01:04.858Z,3.38
2022-12-27T13:02:36.831Z,3.20
2022-12-27T13:03:46.192Z,3.15
2022-12-27T13:05:05.183Z,2.35
2022-12-27T13:06:10.809Z,3.33
2022-12-27T13:07:41.014Z,2.42
2022-12-27T13:09:21.118Z,2.55
2022-12-27T13:10:45.098Z,2.92
2022-12-27T13:11:53.973Z,3.08
2022-12-27T13:13:31.482Z,2.70
2022-12-27T13:15:04.500Z,2.75
2022-12-27T13:16:21.462Z,3.38
2022-12-27T13:17:39.621Z,2.40
2022-12-27T13:18:52.107Z,2.90
2022-12-27T13:20:18.758Z,3.10
2022-12-27T13:21:33.811Z,3.08
2022-12-27T13:23:23.832Z,2.40
2022-12-27T13:24:30.110Z,3.92
2022-12-27T13:25:53.703Z,3.20
2022-12-27T13:27:38.196Z,3.45
2022-12-27T13:28:52.452Z,2.55
2022-12-27T13:30:22.995Z,3.30
2022-12-27T13:31:28.374Z,3.33
2022-12-27T13:32:52.363Z,2.70
2022-12-27T13:34:23.163Z,2.90
2022-12-27T13:35:31.754Z,2.75
2022-12-27T13:36:51.396Z,2.90
2022-12-27T13:38:02.583Z,2.47
2022-12-27T13:39:20.534Z,2.75
2022-12-27T13:40:44.464Z,3.08
2022-12-27T13:42:22.739Z,3.72
2022-12-27T13:43:48.825Z,3.50
2022-12-27T13:45:20.941Z,3.17
2022-12-27T13:46:35.321Z,3.08
2022-12-27T13:47:45.844Z,3.13
2022-12-27T13:49:15.015Z,2.95
2022-12-27T13:50:20.999Z,3.00
2022-12-27T13:51:26.548Z,3.30
2022-12-27T13:52:47.240Z,2.90
2022-12-27T13:54:14.432Z,2.75
2022-12-27T13:55:33.450Z,3.72
2022-12-27T13:56:54.418Z,3.80
2022-12-27T13:58:27.477Z,3.40
2022-12-27T13:59:48.927Z,3.60
2022-12-27T14:01:21.151Z,3.42
2022-12-27T14:02:35.559Z,3.60
2022-12-27T14:04:02.578Z,3.70
2022-12-27T14:05:20.573Z,4.10
2022-12-27T14:06:35.193Z,3.83
2022-12-27T14:07:40.798Z,4.55
2022-12-27T14:08:58.280Z,4.63
2022-12-27T14:10:22.047Z,4.43
2022-12-27T14:11:48.941Z,4.03
2022-12-27T14:12:56.522Z,3.15
2022-12-27T14:14:00.125Z,3.25
2022-12-27T14:15:06.709Z,3.90
2022-12-27T14:16:47.513Z,3.05
2022-12-27T14:18:18.351Z,2.97
2022-12-27T14:19:38.553Z,3.10
2022-12-27T14:21:02.525Z,3.83
2022-12-27T14:22:30.094Z,4.22
2022-12-27T14:23:54.382Z,2.92
2022-12-27T14:25:13.237Z,4.63
2022-12-27T14:26:28.060Z,3.95
2022-12-27T14:27:36.454Z,4.95
2022-12-27T14:28:59.892Z,3.72
2022-12-27T14:30:24.172Z,3.58
2022-12-27T14:31:54.306Z,4.97
2022-12-27T14:33:28.515Z,4.90
2022-12-27T14:34:39.672Z,3.45
2022-12-27T14:36:13.073Z,3.17
2022-12-27T14:37:21.771Z,4.57
2022-12-27T14:38:46.824Z,4.50
2022-12-27T14:40:08.059Z,3.13
2022-12-27T14:41:47.611Z,3.85
2022-12-27T14:43:24.551Z,4.18
2022-12-27T14:44:45.831Z,3.33
2022-12-27T14:46:12.165Z,3.13
2022-12-27T14:47:53.362Z,3.60
2022-12-27T14:48:56.084Z,3.15
2022-12-27T14:50:35.745Z,3.50
2022-12-27T14:52:13.007Z,4.20
2022-12-27T14:53:34.652Z,3.35
2022-12-27T14:54:55.848Z,3.55
2022-12-27T14:56:17.266Z,4.15
2022-12-27T14:57:34.656Z,3.95
2022-12-27T14:59:09.985Z,4.35
2022-12-27T15:00:14.533Z,3.90
2022-12-27T15:01:39.364Z,4.40
2022-12-27T15:03:20.130Z,3.95
2022-12-27T15:04:53.178Z,4.50
2022-12-27T15:05:56.674Z,5.07
2022-12-27T15:07:02.738Z,5.00
2022-12-27T15:08:17.358Z,5.93
2022-12-27T15:09:43.924Z,5.97
2022-12-27T15:10:58.800Z,5.40
2022-12-27T15:12:36.014Z,5.65
2022-12-27T15:13:59.850Z,6.10
2022-12-27T15:15:20.830Z,4.75
2022-12-27T15:16:41.379Z,4.88
2022-12-27T15:18:02.570Z,5.75
2022-12-27T15:19:15.200Z,5.35
2022-12-27T15:20:36.323Z,6.47
2022-12-27T15:22:30.157Z,6.40
2022-12-27T15:23:50.925Z,4.95
2022-12-27T15:25:02.941Z,5.78
2022-12-27T15:26:08.921Z,5.75
2022-12-27T15:27:21.248Z,5.05
2022-12-27T15:28:47.653Z,5.25
2022-12-27T15:30:02.430Z,4.63
2022-12-27T15:31:19.513Z,5.03
2022-12-27T15:32:22.274Z,4.35
2022-12-27T15:33:47.611Z,4.20
2022-12-27T15:34:59.429Z,5.00
2022-12-27T15:36:16.516Z,5.10
2022-12-27T15:38:01.333Z,5.40
2022-12-27T15:39:04.577Z,5.07
2022-12-27T15:40:45.119Z,4.30
2022-12-27T15:42:38.689Z,4.95
2022-12-27T15:44:46.205Z,5.25
2022-12-27T15:46:22.670Z,5.32
2022-12-27T15:47:40.679Z,5.10
2022-12-27T15:48:53.463Z,5.70
2022-12-27T15:50:17.360Z,5.40
2022-12-27T15:51:50.601Z,5.55
2022-12-27T15:53:02.228Z,5.60
2022-12-27T15:54:11.029Z,5.43
2022-12-27T15:55:32.282Z,4.07
2022-12-27T15:57:12.665Z,4.47
2022-12-27T15:58:22.714Z,5.03
2022-12-27T15:59:46.104Z,5.55
2022-12-27T16:01:22.172Z,4.25
2022-12-27T16:02:31.200Z,4.28
2022-12-27T16:03:37.100Z,4.10
2022-12-27T16:04:45.892Z,4.35
2022-12-27T16:05:52.415Z,4.30